Time;durP1;ratioP1;P1;durP2;ratioP2;P2;SDS_P1;SDS_P2;PMS_P1;PMS_P2;Temp;Humidity;BMP_temperature;BMP_pressure;BME280_temperature;BME280_humidity;BME280_pressure;Samples;Min_cycle;Max_cycle;Signal;HPM_P1;HPM_P2
2022/06/30 00:01:31;;;;;;;3.97;3.53;;;17.60;99.90;;;;;;5073576;28;20121;-84
2022/06/30 00:03:58;;;;;;;7.80;4.88;;;17.60;99.90;;;;;;5047342;28;20180;-84
2022/06/30 00:06:24;;;;;;;8.15;4.22;;;17.60;99.90;;;;;;5066359;28;20056;-84
2022/06/30 00:08:50;;;;;;;4.25;3.85;;;17.60;99.90;;;;;;5040758;28;20080;-84
2022/06/30 00:11:16;;;;;;;4.93;4.32;;;17.50;99.90;;;;;;5055302;28;20091;-84
2022/06/30 00:13:42;;;;;;;4.88;4.40;;;17.50;99.90;;;;;;5082683;28;20045;-84
2022/06/30 00:16:09;;;;;;;6.18;4.90;;;17.50;99.90;;;;;;5035103;28;20125;-83
2022/06/30 00:18:36;;;;;;;7.40;4.85;;;17.50;99.90;;;;;;5084150;28;20073;-84
2022/06/30 00:21:02;;;;;;;5.78;5.03;;;17.50;99.90;;;;;;5054174;28;20045;-84
2022/06/30 00:23:29;;;;;;;4.75;4.38;;;17.40;99.90;;;;;;5043118;28;20121;-84
2022/06/30 00:25:54;;;;;;;7.88;4.57;;;17.40;99.90;;;;;;5036287;28;20492;-84
2022/06/30 00:28:20;;;;;;;7.90;4.50;;;17.40;99.90;;;;;;5034188;28;20057;-84
2022/06/30 00:30:47;;;;;;;6.90;4.53;;;17.40;99.90;;;;;;5070521;28;20060;-85
2022/06/30 00:33:13;;;;;;;8.25;4.55;;;17.40;99.90;;;;;;5086853;28;20103;-84
2022/06/30 00:35:39;;;;;;;6.28;4.78;;;17.30;99.90;;;;;;5086004;28;20040;-84
2022/06/30 00:38:05;;;;;;;4.70;4.30;;;17.30;99.90;;;;;;5086976;28;20048;-84
2022/06/30 00:40:35;;;;;;;4.88;4.47;;;17.30;99.90;;;;;;5053965;28;20095;-84
2022/06/30 00:43:01;;;;;;;8.45;4.85;;;17.30;99.90;;;;;;5053183;28;20077;-84
2022/06/30 00:45:27;;;;;;;5.20;4.70;;;17.30;99.90;;;;;;5053845;28;20053;-84
2022/06/30 00:47:53;;;;;;;5.40;4.80;;;17.30;99.90;;;;;;5086213;28;20101;-84
2022/06/30 00:50:19;;;;;;;6.13;4.13;;;17.20;99.90;;;;;;5052439;28;20440;-84
2022/06/30 00:52:45;;;;;;;7.15;4.32;;;17.20;99.90;;;;;;5037683;28;20049;-84
2022/06/30 00:55:15;;;;;;;6.70;5.03;;;17.20;99.90;;;;;;5033719;28;20061;-84
2022/06/30 00:57:42;;;;;;;5.50;4.32;;;17.20;99.90;;;;;;5051880;28;20107;-84
2022/06/30 01:00:08;;;;;;;5.18;3.90;;;17.20;99.90;;;;;;5086943;28;20486;-84
2022/06/30 01:02:34;;;;;;;5.13;4.45;;;17.10;99.90;;;;;;5038148;28;20092;-84
2022/06/30 01:05:01;;;;;;;9.18;4.00;;;17.10;99.90;;;;;;5066187;28;20047;-84
2022/06/30 01:07:28;;;;;;;5.15;4.10;;;17.10;99.90;;;;;;5033635;28;20120;-83
2022/06/30 01:12:44;;;;;;;4.82;3.92;;;17.10;99.90;;;;;;5019567;28;20401;-84
2022/06/30 01:15:18;;;;;;;5.75;3.90;;;17.10;99.90;;;;;;5034107;28;20041;-84
2022/06/30 01:17:45;;;;;;;5.57;4.20;;;17.10;99.90;;;;;;5052323;28;20049;-84
2022/06/30 01:20:11;;;;;;;3.88;3.30;;;17.10;99.90;;;;;;5053988;28;20114;-84
2022/06/30 01:22:37;;;;;;;5.47;3.70;;;17.10;99.90;;;;;;5072837;28;20046;-83
2022/06/30 01:25:05;;;;;;;5.38;4.25;;;17.10;99.90;;;;;;5065147;28;20041;-82
2022/06/30 01:27:31;;;;;;;6.75;4.13;;;17.10;99.90;;;;;;5045137;28;20037;-84
2022/06/30 01:29:58;;;;;;;6.50;3.47;;;17.10;99.90;;;;;;5046864;28;20034;-84
2022/06/30 01:32:25;;;;;;;7.15;3.30;;;17.20;99.90;;;;;;5050578;28;20053;-82
2022/06/30 01:34:52;;;;;;;4.25;3.10;;;17.20;99.90;;;;;;5066101;28;20045;-82
2022/06/30 01:37:18;;;;;;;5.63;3.42;;;17.20;99.90;;;;;;5033723;28;20103;-83
2022/06/30 01:39:44;;;;;;;9.40;4.45;;;17.30;99.90;;;;;;5052646;28;20043;-83
2022/06/30 01:42:10;;;;;;;4.95;4.05;;;17.30;99.90;;;;;;5036954;28;20136;-85
2022/06/30 01:44:36;;;;;;;5.82;4.15;;;17.30;99.90;;;;;;5064910;28;20041;-83
2022/06/30 01:47:02;;;;;;;5.88;4.45;;;17.40;99.90;;;;;;5080788;28;20041;-83
2022/06/30 01:49:27;;;;;;;4.80;4.40;;;17.40;99.90;;;;;;5052083;28;20056;-84
2022/06/30 01:51:53;;;;;;;4.63;3.75;;;17.40;99.90;;;;;;5052245;28;20052;-83
2022/06/30 01:54:19;;;;;;;4.88;4.10;;;17.50;99.90;;;;;;5052966;28;20072;-84
2022/06/30 01:56:45;;;;;;;4.63;3.90;;;17.40;99.90;;;;;;5085264;28;20044;-83
2022/06/30 01:59:11;;;;;;;4.00;3.60;;;17.40;99.90;;;;;;5044824;28;20048;-83
2022/06/30 02:01:37;;;;;;;4.93;4.07;;;17.40;99.90;;;;;;5065536;28;20053;-83
2022/06/30 02:06:48;;;;;;;6.13;3.85;;;17.30;99.90;;;;;;5051652;28;20503;-83
2022/06/30 02:09:14;;;;;;;4.35;3.67;;;17.40;99.90;;;;;;5044853;28;20045;-83
2022/06/30 02:11:40;;;;;;;4.70;3.72;;;17.40;99.90;;;;;;5033006;28;20060;-83
2022/06/30 02:14:06;;;;;;;4.82;4.10;;;17.40;99.90;;;;;;5045825;28;20041;-83
2022/06/30 02:16:32;;;;;;;5.13;3.67;;;17.40;99.90;;;;;;5053386;28;20049;-83
2022/06/30 02:18:58;;;;;;;4.25;3.30;;;17.30;99.90;;;;;;5037378;28;20113;-83
2022/06/30 02:21:24;;;;;;;5.75;3.50;;;17.30;99.90;;;;;;5075128;28;20060;-83
2022/06/30 02:23:51;;;;;;;6.00;4.03;;;17.30;99.90;;;;;;5053129;28;20033;-84
2022/06/30 02:26:18;;;;;;;4.03;3.60;;;17.20;99.90;;;;;;5052565;28;20053;-84
2022/06/30 02:28:44;;;;;;;4.07;3.65;;;17.10;99.90;;;;;;5036574;28;20444;-83
2022/06/30 02:31:12;;;;;;;6.05;3.83;;;17.10;99.90;;;;;;5037167;28;20049;-84
2022/06/30 02:33:41;;;;;;;7.28;3.40;;;17.10;99.90;;;;;;5036663;28;20460;-83
2022/06/30 02:36:07;;;;;;;6.00;3.50;;;17.10;99.90;;;;;;5075328;28;20428;-84
2022/06/30 02:38:33;;;;;;;4.95;3.65;;;17.10;99.90;;;;;;5056395;28;20091;-83
2022/06/30 02:40:59;;;;;;;6.93;3.53;;;17.00;99.90;;;;;;5068256;28;20079;-84
2022/06/30 02:43:25;;;;;;;4.63;3.30;;;17.00;99.90;;;;;;5037176;28;20053;-84
2022/06/30 02:45:51;;;;;;;5.65;4.13;;;17.00;99.90;;;;;;5036290;28;20048;-84
2022/06/30 02:48:18;;;;;;;3.92;3.17;;;17.00;99.90;;;;;;5075573;28;20493;-84
2022/06/30 02:50:44;;;;;;;7.35;3.00;;;16.90;99.90;;;;;;5071887;28;20106;-83
2022/06/30 02:53:11;;;;;;;3.67;3.38;;;16.90;99.90;;;;;;5055939;28;20078;-84
2022/06/30 02:55:38;;;;;;;5.13;3.60;;;16.90;99.90;;;;;;5061195;28;20041;-83
2022/06/30 02:58:03;;;;;;;5.20;3.88;;;16.90;99.90;;;;;;5041347;28;20408;-84
2022/06/30 03:00:29;;;;;;;4.38;3.38;;;16.80;99.90;;;;;;5056634;28;20049;-83
2022/06/30 03:02:57;;;;;;;3.65;3.35;;;16.80;99.90;;;;;;5052515;28;20711;-84
2022/06/30 03:05:23;;;;;;;4.20;3.60;;;16.70;99.90;;;;;;5040536;28;20146;-83
2022/06/30 03:07:49;;;;;;;4.55;4.03;;;16.70;99.90;;;;;;5054414;28;20114;-83
2022/06/30 03:10:15;;;;;;;5.20;3.78;;;16.60;99.90;;;;;;5035842;28;20045;-83
2022/06/30 03:12:41;;;;;;;6.10;3.80;;;16.60;99.90;;;;;;5036338;28;20042;-83
2022/06/30 03:15:07;;;;;;;5.82;3.38;;;16.60;99.90;;;;;;5036687;28;20052;-83
2022/06/30 03:17:33;;;;;;;5.78;3.70;;;16.60;99.90;;;;;;5035492;28;20049;-84
2022/06/30 03:19:59;;;;;;;4.10;3.40;;;16.60;99.90;;;;;;5039543;28;20500;-84
2022/06/30 03:22:24;;;;;;;3.55;3.03;;;16.60;99.90;;;;;;5052797;28;20063;-83
2022/06/30 03:24:50;;;;;;;3.42;3.13;;;16.60;99.90;;;;;;5055423;28;20136;-83
2022/06/30 03:27:16;;;;;;;4.47;3.58;;;16.50;99.90;;;;;;5043151;28;20060;-83
2022/06/30 03:29:42;;;;;;;7.18;3.38;;;16.50;99.90;;;;;;5034465;28;20120;-84
2022/06/30 03:32:08;;;;;;;5.28;3.65;;;16.50;99.90;;;;;;5035407;28;20129;-83
2022/06/30 03:34:33;;;;;;;9.20;3.50;;;16.50;99.90;;;;;;5049467;28;20037;-83
2022/06/30 03:36:59;;;;;;;6.90;3.53;;;16.50;99.90;;;;;;5052588;28;20064;-83
2022/06/30 03:39:25;;;;;;;11.25;3.90;;;16.50;99.90;;;;;;5050420;28;20044;-83
2022/06/30 03:41:51;;;;;;;5.03;3.80;;;16.40;99.90;;;;;;5035817;28;20069;-83
2022/06/30 03:44:16;;;;;;;6.15;3.42;;;16.40;99.90;;;;;;5067504;28;20433;-83
2022/06/30 03:46:42;;;;;;;3.30;3.00;;;16.40;99.90;;;;;;5088161;28;20505;-83
2022/06/30 03:49:08;;;;;;;5.80;3.83;;;16.40;99.90;;;;;;5087181;28;20045;-84
2022/06/30 03:51:34;;;;;;;5.68;4.18;;;16.40;99.90;;;;;;5070820;28;20055;-84
2022/06/30 03:54:00;;;;;;;4.55;3.17;;;16.40;99.90;;;;;;5087994;28;20128;-84
2022/06/30 03:56:26;;;;;;;4.00;3.45;;;16.40;99.90;;;;;;5052445;28;20041;-83
2022/06/30 03:58:52;;;;;;;4.50;3.88;;;16.40;99.90;;;;;;5034894;28;20041;-83
2022/06/30 04:01:18;;;;;;;5.53;4.03;;;16.50;99.90;;;;;;5035580;28;20505;-83
2022/06/30 04:03:43;;;;;;;6.25;3.90;;;16.40;99.90;;;;;;5045354;28;20070;-84
2022/06/30 04:06:09;;;;;;;4.35;3.83;;;16.50;99.90;;;;;;5086648;28;20053;-84
2022/06/30 04:08:35;;;;;;;5.25;3.25;;;16.50;99.90;;;;;;5055123;28;20045;-84
2022/06/30 04:11:01;;;;;;;4.03;3.72;;;16.50;99.90;;;;;;5087454;28;20052;-83
2022/06/30 04:13:26;;;;;;;6.85;3.80;;;16.50;99.90;;;;;;5047756;28;20049;-84
2022/06/30 04:15:55;;;;;;;4.07;3.70;;;16.50;99.90;;;;;;5067609;28;20049;-84
2022/06/30 04:18:21;;;;;;;4.47;4.07;;;16.60;99.90;;;;;;5040453;28;20369;-84
2022/06/30 04:20:46;;;;;;;12.65;4.40;;;16.70;99.90;;;;;;5086422;28;20131;-83
2022/06/30 04:23:12;;;;;;;6.93;3.90;;;16.70;99.90;;;;;;5051441;28;20049;-83
2022/06/30 04:25:38;;;;;;;4.30;3.88;;;16.80;99.90;;;;;;5067176;28;20117;-83
2022/06/30 04:28:05;;;;;;;6.30;3.53;;;16.80;99.90;;;;;;5080140;28;20484;-84
2022/06/30 04:33:16;;;;;;;6.25;3.33;;;16.90;99.90;;;;;;5043910;28;20099;-83
2022/06/30 04:35:42;;;;;;;6.47;3.65;;;17.00;99.90;;;;;;5038095;28;20037;-83
2022/06/30 04:38:08;;;;;;;9.27;3.30;;;17.10;99.90;;;;;;5054782;28;20051;-84
2022/06/30 04:43:18;;;;;;;4.05;3.40;;;17.30;99.90;;;;;;5067053;28;20115;-84
2022/06/30 04:45:44;;;;;;;4.65;3.53;;;17.40;99.90;;;;;;5042220;28;20040;-83
2022/06/30 04:48:11;;;;;;;7.28;3.80;;;17.60;99.90;;;;;;5052664;28;20080;-83
2022/06/30 04:50:37;;;;;;;5.57;3.22;;;17.70;99.90;;;;;;5052655;28;20079;-84
2022/06/30 04:53:03;;;;;;;3.78;3.03;;;17.80;99.90;;;;;;5050231;28;20080;-84
2022/06/30 04:55:29;;;;;;;7.05;3.60;;;18.00;99.90;;;;;;5053645;28;20080;-84
2022/06/30 04:57:55;;;;;;;5.00;3.25;;;18.20;99.90;;;;;;5055240;28;20074;-83
2022/06/30 05:00:20;;;;;;;3.75;3.35;;;18.30;99.90;;;;;;5046553;28;20124;-84
2022/06/30 05:02:46;;;;;;;5.95;3.13;;;18.40;99.90;;;;;;5055153;28;20044;-83
2022/06/30 05:05:12;;;;;;;5.78;3.38;;;18.50;99.90;;;;;;5064768;28;20055;-84
2022/06/30 05:07:38;;;;;;;7.22;3.25;;;18.60;99.90;;;;;;5053945;28;20056;-84
2022/06/30 05:10:04;;;;;;;7.10;3.10;;;18.80;99.90;;;;;;5050224;28;20044;-83
2022/06/30 05:12:30;;;;;;;4.20;2.90;;;18.80;99.90;;;;;;5060930;28;20045;-83
2022/06/30 05:14:55;;;;;;;3.35;3.05;;;19.00;99.90;;;;;;5052773;28;20373;-85
2022/06/30 05:17:21;;;;;;;4.28;3.30;;;19.10;99.90;;;;;;5051744;28;20041;-82
2022/06/30 05:19:47;;;;;;;8.02;3.22;;;19.20;99.90;;;;;;5041858;28;20389;-84
2022/06/30 05:22:13;;;;;;;5.75;3.42;;;19.20;99.90;;;;;;5066209;28;20041;-83
2022/06/30 05:27:23;;;;;;;5.32;3.35;;;19.40;99.90;;;;;;5054024;28;20051;-84
2022/06/30 05:29:49;;;;;;;7.03;3.35;;;19.40;99.90;;;;;;5041719;28;20045;-83
2022/06/30 05:32:14;;;;;;;6.40;3.40;;;19.50;99.90;;;;;;5075207;28;20045;-85
2022/06/30 05:34:40;;;;;;;5.10;3.30;;;19.60;99.90;;;;;;5076523;28;20041;-88
2022/06/30 05:37:06;;;;;;;10.35;3.40;;;19.70;99.90;;;;;;5064946;28;20056;-88
2022/06/30 05:39:35;;;;;;;5.80;3.13;;;19.80;99.90;;;;;;5034135;28;20034;-87
2022/06/30 05:42:02;;;;;;;7.20;3.40;;;19.90;99.90;;;;;;5033891;28;20041;-86
2022/06/30 05:44:29;;;;;;;7.18;3.20;;;20.00;99.90;;;;;;5033248;28;20037;-88
2022/06/30 05:46:55;;;;;;;8.68;3.38;;;20.00;99.90;;;;;;5074754;28;20055;-86
2022/06/30 05:49:24;;;;;;;4.10;3.22;;;20.00;99.90;;;;;;5034449;28;20132;-87
2022/06/30 05:51:50;;;;;;;4.60;3.20;;;20.10;99.90;;;;;;5031503;28;20497;-89
2022/06/30 05:54:16;;;;;;;5.53;3.15;;;20.20;99.90;;;;;;5050694;28;20037;-87
2022/06/30 05:56:42;;;;;;;6.10;3.70;;;20.30;99.90;;;;;;5053616;28;20052;-86
2022/06/30 05:59:08;;;;;;;6.25;3.60;;;20.40;99.90;;;;;;5085009;28;20049;-87
2022/06/30 06:01:33;;;;;;;7.18;3.20;;;20.40;99.90;;;;;;5051861;28;20071;-85
2022/06/30 06:03:59;;;;;;;5.75;3.50;;;20.50;99.90;;;;;;5038129;28;20076;-86
2022/06/30 06:06:25;;;;;;;7.78;3.67;;;20.60;99.90;;;;;;5056904;28;20118;-86
2022/06/30 06:08:52;;;;;;;5.78;3.55;;;20.60;99.90;;;;;;5054160;28;20048;-85
2022/06/30 06:11:18;;;;;;;6.00;3.30;;;20.70;99.90;;;;;;5051415;28;20053;-86
2022/06/30 06:13:44;;;;;;;5.65;3.45;;;20.70;99.90;;;;;;5043097;28;20053;-88
2022/06/30 06:16:10;;;;;;;3.65;3.35;;;20.80;99.90;;;;;;5065293;28;20504;-88
2022/06/30 06:18:35;;;;;;;5.55;3.35;;;20.90;99.90;;;;;;5040808;28;20049;-88
2022/06/30 06:21:01;;;;;;;6.82;3.60;;;21.00;99.90;;;;;;5051111;28;20550;-89
2022/06/30 06:23:27;;;;;;;5.70;3.63;;;21.10;99.90;;;;;;5052311;28;20076;-84
2022/06/30 06:25:53;;;;;;;6.00;3.75;;;21.20;99.90;;;;;;5048658;28;20040;-89
2022/06/30 06:31:03;;;;;;;5.55;3.65;;;21.40;99.90;;;;;;5084694;28;20051;-87
2022/06/30 06:33:29;;;;;;;9.20;4.10;;;21.50;99.90;;;;;;5051336;28;20040;-86
2022/06/30 06:35:55;;;;;;;4.60;3.88;;;21.60;99.90;;;;;;5085026;28;20048;-86
2022/06/30 06:38:20;;;;;;;7.22;4.20;;;21.60;99.90;;;;;;5052021;28;20040;-85
2022/06/30 06:40:46;;;;;;;8.30;3.53;;;21.70;99.90;;;;;;5054740;28;20033;-89
2022/06/30 06:43:12;;;;;;;8.88;4.03;;;21.80;99.90;;;;;;5032968;28;20482;-88
2022/06/30 06:45:38;;;;;;;6.80;4.25;;;21.90;99.90;;;;;;5082150;28;20124;-85
2022/06/30 06:48:04;;;;;;;5.85;4.32;;;21.90;99.90;;;;;;5032154;28;20042;-87
2022/06/30 06:50:29;;;;;;;5.47;4.38;;;22.00;99.90;;;;;;5079552;28;20122;-87
2022/06/30 06:52:55;;;;;;;5.80;3.33;;;22.10;99.90;;;;;;5051348;28;20084;-86
2022/06/30 06:55:22;;;;;;;8.65;3.58;;;22.20;99.90;;;;;;5052322;28;20047;-88
2022/06/30 06:57:48;;;;;;;12.88;4.13;;;22.30;99.90;;;;;;5052748;28;20499;-88
2022/06/30 07:00:14;;;;;;;10.32;4.15;;;22.30;99.90;;;;;;5052399;28;20501;-85
2022/06/30 07:02:43;;;;;;;5.43;4.80;;;22.50;99.90;;;;;;5050518;28;20488;-87
2022/06/30 07:05:09;;;;;;;5.95;4.10;;;22.60;99.90;;;;;;5055838;28;20455;-87
2022/06/30 07:07:36;;;;;;;5.25;4.30;;;22.60;99.90;;;;;;5055930;28;20076;-88
2022/06/30 07:10:07;;;;;;;5.32;4.28;;;22.70;99.90;;;;;;5054901;28;20044;-87
2022/06/30 07:12:36;;;;;;;14.35;4.45;;;22.80;99.90;;;;;;5087977;28;20045;-85
2022/06/30 07:15:03;;;;;;;9.13;5.18;;;22.90;99.90;;;;;;5087630;28;20041;-86
2022/06/30 07:17:33;;;;;;;8.80;3.88;;;23.00;99.90;;;;;;5056553;28;20048;-90
2022/06/30 07:19:59;;;;;;;8.02;4.95;;;23.00;99.90;;;;;;5050611;28;20045;-86
2022/06/30 07:22:24;;;;;;;8.15;5.13;;;23.10;99.90;;;;;;5078176;28;20046;-89
2022/06/30 07:24:51;;;;;;;4.88;4.47;;;23.20;99.90;;;;;;5068254;28;20044;-85
2022/06/30 07:27:17;;;;;;;6.72;5.50;;;23.30;99.90;;;;;;5068214;28;20382;-86
2022/06/30 07:29:42;;;;;;;6.13;5.32;;;23.40;99.90;;;;;;5035401;28;20042;-86
2022/06/30 07:32:09;;;;;;;10.73;5.55;;;23.50;99.90;;;;;;5082169;28;20045;-88
2022/06/30 07:34:35;;;;;;;6.55;5.25;;;23.50;99.90;;;;;;5043172;28;20046;-90
2022/06/30 07:37:00;;;;;;;6.20;5.60;;;23.60;99.90;;;;;;5046085;28;20044;-87
2022/06/30 07:39:26;;;;;;;6.55;5.53;;;23.60;99.90;;;;;;5039047;28;20087;-82
2022/06/30 07:41:52;;;;;;;8.15;6.00;;;23.60;99.90;;;;;;5056288;28;20131;-86
2022/06/30 07:44:18;;;;;;;10.48;5.75;;;23.70;99.90;;;;;;5055045;28;20052;-82
2022/06/30 07:46:44;;;;;;;5.88;4.93;;;23.80;99.90;;;;;;5087924;28;20045;-87
2022/06/30 07:49:09;;;;;;;7.65;5.22;;;23.80;99.90;;;;;;5088067;28;20099;-82
2022/06/30 07:51:35;;;;;;;6.78;4.95;;;23.80;99.90;;;;;;5054966;28;20515;-82
2022/06/30 07:54:01;;;;;;;8.73;5.40;;;23.90;99.90;;;;;;5055715;28;20405;-82
2022/06/30 07:56:27;;;;;;;13.35;5.57;;;23.90;99.90;;;;;;5055739;28;20366;-83
2022/06/30 07:58:52;;;;;;;8.30;5.25;;;24.00;99.90;;;;;;5054616;28;20551;-81
2022/06/30 08:01:19;;;;;;;7.97;5.40;;;24.00;99.90;;;;;;5055406;28;20048;-81
2022/06/30 08:03:45;;;;;;;6.22;5.63;;;24.10;99.90;;;;;;5055405;28;20048;-80
2022/06/30 08:06:12;;;;;;;7.47;5.80;;;24.20;99.90;;;;;;5053179;28;20091;-81
2022/06/30 08:08:38;;;;;;;5.47;4.97;;;24.20;99.90;;;;;;5055507;28;20143;-85
2022/06/30 08:11:04;;;;;;;5.30;4.80;;;24.20;99.90;;;;;;5054327;28;20059;-84
2022/06/30 08:13:29;;;;;;;7.43;5.18;;;24.30;99.90;;;;;;5054316;28;20041;-84
2022/06/30 08:15:55;;;;;;;5.60;5.13;;;24.30;99.90;;;;;;5055256;28;20044;-81
2022/06/30 08:18:21;;;;;;;8.85;5.55;;;24.40;99.90;;;;;;5053158;28;20044;-84
2022/06/30 08:20:48;;;;;;;6.88;5.63;;;24.40;99.90;;;;;;5087767;28;20392;-81
2022/06/30 08:23:14;;;;;;;6.50;5.80;;;24.50;99.90;;;;;;5055123;28;20403;-82
2022/06/30 08:25:39;;;;;;;7.22;6.35;;;24.50;99.90;;;;;;5054382;28;20036;-83
2022/06/30 08:28:05;;;;;;;7.57;6.68;;;24.50;99.90;;;;;;5053641;28;20060;-81
2022/06/30 08:30:31;;;;;;;8.30;6.25;;;24.50;99.90;;;;;;5055298;28;20037;-82
2022/06/30 08:32:57;;;;;;;14.43;5.90;;;24.60;99.90;;;;;;5054154;28;20055;-82
2022/06/30 08:35:23;;;;;;;6.90;6.20;;;24.60;99.90;;;;;;5055116;28;20111;-82
2022/06/30 08:37:49;;;;;;;9.27;6.47;;;24.60;99.90;;;;;;5053503;28;20049;-81
2022/06/30 08:43:03;;;;;;;7.88;7.18;;;24.60;99.90;;;;;;5054856;28;20123;-81
2022/06/30 08:45:29;;;;;;;7.28;6.30;;;24.60;99.90;;;;;;5054811;28;20045;-82
2022/06/30 08:47:55;;;;;;;10.52;6.80;;;24.50;99.90;;;;;;5053694;28;20067;-81
2022/06/30 08:50:21;;;;;;;7.35;5.93;;;24.60;99.90;;;;;;5053319;28;20475;-82
2022/06/30 08:52:57;;;;;;;10.68;7.40;;;24.60;99.90;;;;;;5036705;28;20076;-81
2022/06/30 08:55:28;;;;;;;9.35;5.90;;;24.60;99.90;;;;;;5053849;28;20049;-82
2022/06/30 08:58:14;;;;;;;8.30;5.28;;;24.60;99.90;;;;;;5036799;28;20072;-82
2022/06/30 09:00:42;;;;;;;11.23;6.90;;;24.70;99.90;;;;;;5053349;28;20126;-81
2022/06/30 09:03:08;;;;;;;8.57;6.10;;;24.70;99.90;;;;;;5053082;28;20124;-83
2022/06/30 09:05:33;;;;;;;8.10;6.88;;;24.70;99.90;;;;;;5054118;28;20075;-82
2022/06/30 09:07:59;;;;;;;9.15;6.78;;;24.60;99.90;;;;;;5052034;28;20136;-82
2022/06/30 09:10:25;;;;;;;10.80;7.10;;;24.70;99.90;;;;;;5052901;28;20053;-82
2022/06/30 09:12:58;;;;;;;12.98;8.00;;;24.70;99.90;;;;;;5053020;28;20053;-82
2022/06/30 09:15:27;;;;;;;7.80;6.57;;;24.80;99.90;;;;;;5052119;28;20049;-82
2022/06/30 09:17:53;;;;;;;14.65;8.57;;;24.80;99.90;;;;;;5053679;28;20048;-81
2022/06/30 09:20:32;;;;;;;12.73;6.97;;;24.80;99.90;;;;;;5054119;28;20041;-81
2022/06/30 09:22:59;;;;;;;10.18;6.63;;;24.80;99.90;;;;;;5053468;28;20036;-82
2022/06/30 09:25:30;;;;;;;8.60;7.38;;;24.80;99.90;;;;;;5053944;28;20059;-82
2022/06/30 09:27:56;;;;;;;8.55;7.35;;;24.80;99.90;;;;;;5053709;28;20477;-85
2022/06/30 09:30:24;;;;;;;7.85;6.70;;;24.90;99.90;;;;;;5052945;28;20090;-82
2022/06/30 09:32:54;;;;;;;9.07;6.82;;;24.90;99.90;;;;;;5085700;28;20060;-82
2022/06/30 09:35:22;;;;;;;8.63;7.80;;;25.00;99.90;;;;;;5052783;28;20108;-83
2022/06/30 09:37:58;;;;;;;10.63;7.55;;;25.10;99.90;;;;;;5053044;28;20088;-84
2022/06/30 09:41:02;;;;;;;9.23;6.50;;;25.20;99.90;;;;;;5086594;28;20036;-82
2022/06/30 09:43:36;;;;;;;11.23;5.60;;;25.40;99.90;;;;;;5068303;28;20497;-82
2022/06/30 09:46:02;;;;;;;8.35;6.07;;;25.50;99.90;;;;;;5069094;28;20052;-86
2022/06/30 09:48:30;;;;;;;8.15;6.10;;;25.50;99.90;;;;;;5085738;28;20056;-84
2022/06/30 09:51:00;;;;;;;5.68;5.03;;;25.50;99.90;;;;;;5052688;28;20098;-83
2022/06/30 09:53:26;;;;;;;6.05;5.45;;;25.50;99.90;;;;;;5085860;28;20492;-85
2022/06/30 09:55:52;;;;;;;8.55;6.85;;;25.50;99.90;;;;;;5085698;28;20040;-83
2022/06/30 09:58:30;;;;;;;8.65;6.95;;;25.40;99.90;;;;;;5085218;28;20052;-83
2022/06/30 10:00:56;;;;;;;11.32;6.18;;;25.40;99.90;;;;;;5053543;28;20041;-83
2022/06/30 10:03:22;;;;;;;7.13;6.43;;;25.40;99.90;;;;;;5053204;28;20049;-82
2022/06/30 10:05:50;;;;;;;6.43;5.82;;;25.40;99.90;;;;;;5052920;28;20049;-82
2022/06/30 10:08:18;;;;;;;8.85;6.68;;;25.50;99.90;;;;;;5052917;28;20410;-83
2022/06/30 10:10:44;;;;;;;10.77;8.77;;;25.60;99.90;;;;;;5051977;28;20642;-84
2022/06/30 10:13:15;;;;;;;9.55;6.38;;;25.70;99.90;;;;;;5052839;28;20047;-85
2022/06/30 10:15:45;;;;;;;16.30;5.65;;;25.90;99.90;;;;;;5035507;28;20055;-83
2022/06/30 10:18:11;;;;;;;12.88;6.65;;;25.90;99.90;;;;;;5051366;28;20049;-84
2022/06/30 10:20:38;;;;;;;13.95;6.75;;;25.90;99.90;;;;;;5085228;28;20132;-86
2022/06/30 10:23:10;;;;;;;8.18;6.43;;;26.00;99.90;;;;;;5051928;28;20064;-84
2022/06/30 10:25:36;;;;;;;9.38;7.22;;;26.00;99.90;;;;;;5052481;28;20130;-83
2022/06/30 10:28:03;;;;;;;10.02;5.85;;;26.10;99.90;;;;;;5051973;28;20041;-84
2022/06/30 10:30:50;;;;;;;6.22;5.47;;;26.20;99.90;;;;;;5053271;28;20081;-81
2022/06/30 10:33:30;;;;;;;11.80;5.47;;;26.30;99.90;;;;;;5051087;28;20055;-87
2022/06/30 10:36:01;;;;;;;7.03;4.60;;;26.30;99.90;;;;;;5052970;28;20036;-85
2022/06/30 10:38:51;;;;;;;7.10;6.22;;;26.40;99.90;;;;;;5051862;28;20056;-85
2022/06/30 10:41:18;;;;;;;19.45;6.53;;;26.50;99.90;;;;;;5056392;28;20041;-83
2022/06/30 10:44:05;;;;;;;6.43;5.68;;;26.50;99.90;;;;;;5056862;28;20052;-84
2022/06/30 10:46:57;;;;;;;10.35;6.72;;;26.60;99.90;;;;;;5055055;28;20493;-86
2022/06/30 10:49:27;;;;;;;11.55;8.10;;;26.70;99.90;;;;;;5039283;28;20437;-84
2022/06/30 10:52:16;;;;;;;10.93;8.15;;;26.60;99.90;;;;;;5055605;28;20452;-85
2022/06/30 10:54:45;;;;;;;11.65;7.65;;;26.60;99.90;;;;;;5052892;28;20048;-86
2022/06/30 10:57:12;;;;;;;9.35;8.13;;;26.50;99.90;;;;;;5042146;28;20079;-84
2022/06/30 10:59:42;;;;;;;10.75;7.10;;;26.50;99.90;;;;;;5059922;28;20111;-86
2022/06/30 11:02:11;;;;;;;10.57;6.13;;;26.40;99.90;;;;;;5065148;28;20039;-84
2022/06/30 11:04:48;;;;;;;9.15;6.10;;;26.30;99.90;;;;;;5047835;28;20049;-85
2022/06/30 11:07:26;;;;;;;7.50;6.50;;;26.30;99.90;;;;;;5052902;28;20053;-85
2022/06/30 11:10:04;;;;;;;12.65;6.15;;;26.30;99.90;;;;;;5056460;28;20405;-85
2022/06/30 11:12:34;;;;;;;8.80;4.82;;;26.30;99.90;;;;;;5055975;28;20045;-85
2022/06/30 11:15:03;;;;;;;13.25;4.88;;;26.30;99.90;;;;;;5054635;28;20055;-84
2022/06/30 11:17:31;;;;;;;13.15;5.82;;;26.30;99.90;;;;;;5056013;28;20066;-83
2022/06/30 11:20:07;;;;;;;9.25;5.65;;;26.30;99.90;;;;;;5056216;28;20075;-91
2022/06/30 11:22:36;;;;;;;13.75;5.45;;;26.30;99.90;;;;;;5055689;28;20401;-88
2022/06/30 11:25:11;;;;;;;5.93;4.28;;;26.30;99.90;;;;;;5051608;28;20056;-86
2022/06/30 11:27:43;;;;;;;16.00;4.30;;;26.30;99.90;;;;;;5090935;28;20067;-84
2022/06/30 11:30:11;;;;;;;11.82;4.00;;;26.30;99.90;;;;;;5066495;28;20041;-84
2022/06/30 11:32:38;;;;;;;4.70;3.42;;;26.30;99.90;;;;;;5054590;28;20049;-86
2022/06/30 11:35:04;;;;;;;8.40;3.67;;;26.30;99.90;;;;;;5057079;28;20182;-83
2022/06/30 11:37:35;;;;;;;6.82;3.83;;;26.30;99.90;;;;;;5037504;28;20401;-87
2022/06/30 11:40:07;;;;;;;11.00;4.47;;;26.30;99.90;;;;;;5084536;28;20052;-86
2022/06/30 11:42:35;;;;;;;14.10;3.10;;;26.30;99.90;;;;;;5053825;28;20457;-85
2022/06/30 11:45:02;;;;;;;7.10;3.28;;;26.30;99.90;;;;;;5056953;28;20436;-86
2022/06/30 11:47:30;;;;;;;5.93;3.92;;;26.20;99.90;;;;;;5087130;28;20127;-85
2022/06/30 11:49:58;;;;;;;6.00;3.85;;;26.20;99.90;;;;;;5052433;28;20130;-83
2022/06/30 11:52:35;;;;;;;5.55;4.50;;;26.20;99.90;;;;;;5062226;28;20044;-84
2022/06/30 11:55:06;;;;;;;6.45;3.63;;;26.30;99.90;;;;;;5054239;28;20037;-84
2022/06/30 11:57:36;;;;;;;10.43;5.20;;;26.30;99.90;;;;;;5051562;28;20075;-86
2022/06/30 12:00:06;;;;;;;12.18;6.60;;;26.30;99.90;;;;;;5068415;28;20042;-84
2022/06/30 12:02:33;;;;;;;8.43;6.53;;;26.40;99.90;;;;;;5061900;28;20048;-83
2022/06/30 12:05:01;;;;;;;10.90;8.25;;;26.40;99.90;;;;;;5086511;28;20057;-84
2022/06/30 12:07:28;;;;;;;9.68;7.18;;;26.30;99.90;;;;;;5057655;28;20050;-85
2022/06/30 12:09:56;;;;;;;11.45;8.00;;;26.10;99.90;;;;;;5032017;28;20085;-88
2022/06/30 12:12:27;;;;;;;9.48;8.35;;;26.00;99.90;;;;;;5069443;28;20051;-84
2022/06/30 12:14:54;;;;;;;16.08;8.57;;;25.90;99.90;;;;;;5057989;28;20072;-84
2022/06/30 12:17:21;;;;;;;13.68;9.35;;;25.90;99.90;;;;;;5053651;28;20114;-84
2022/06/30 12:19:48;;;;;;;14.85;7.03;;;25.90;99.90;;;;;;5054134;28;20056;-84
2022/06/30 12:22:14;;;;;;;13.02;7.22;;;25.90;99.90;;;;;;5053781;28;20064;-85
2022/06/30 12:24:41;;;;;;;7.60;6.28;;;25.90;99.90;;;;;;5053013;28;20405;-84
2022/06/30 12:27:08;;;;;;;10.68;7.80;;;26.00;99.90;;;;;;5089947;28;20103;-85
2022/06/30 12:29:34;;;;;;;13.10;7.55;;;26.10;99.90;;;;;;5054968;28;20121;-87
2022/06/30 12:32:10;;;;;;;8.63;6.75;;;26.10;99.90;;;;;;5052478;28;20124;-83
2022/06/30 12:34:51;;;;;;;11.35;6.80;;;26.10;99.90;;;;;;5086870;28;20098;-85
2022/06/30 12:37:43;;;;;;;14.30;7.20;;;26.00;99.90;;;;;;5055429;28;20111;-86
2022/06/30 12:40:15;;;;;;;10.60;6.72;;;25.80;99.90;;;;;;5085907;28;20056;-86
2022/06/30 12:42:50;;;;;;;17.48;6.47;;;25.70;99.90;;;;;;5054280;28;20083;-86
2022/06/30 12:45:52;;;;;;;10.85;6.15;;;25.70;99.90;;;;;;5053756;28;20424;-84
2022/06/30 12:48:48;;;;;;;10.00;6.35;;;25.70;99.90;;;;;;5055334;28;20040;-85
2022/06/30 12:51:40;;;;;;;11.10;5.75;;;25.70;99.90;;;;;;5059295;28;20515;-84
2022/06/30 12:54:16;;;;;;;8.32;5.55;;;25.70;99.90;;;;;;5049897;28;20049;-86
2022/06/30 12:56:50;;;;;;;7.57;5.15;;;25.70;99.90;;;;;;5070463;28;20040;-84
2022/06/30 12:59:20;;;;;;;8.75;5.80;;;25.60;99.90;;;;;;5069536;28;20128;-86
2022/06/30 13:02:00;;;;;;;9.45;5.15;;;25.60;99.90;;;;;;5084632;28;20049;-83
2022/06/30 13:04:31;;;;;;;5.55;4.07;;;25.60;99.90;;;;;;5087397;28;20091;-84
2022/06/30 13:06:59;;;;;;;7.20;4.40;;;25.60;99.90;;;;;;5067027;28;20061;-83
2022/06/30 13:09:27;;;;;;;11.80;6.43;;;25.60;99.90;;;;;;5074270;28;20049;-85